Time;durP1;ratioP1;P1;durP2;ratioP2;P2;SDS_P1;SDS_P2;PMS_P1;PMS_P2;Temp;Humidity;BMP_temperature;BMP_pressure;BME280_temperature;BME280_humidity;BME280_pressure;Samples;Min_cycle;Max_cycle;Signal;HPM_P1;HPM_P2
2022/01/18 00:02:02;;;;;;;22.40;5.13;;;24.60;99.90;;;;;;5071458;28;20426;-71
2022/01/18 00:04:30;;;;;;;21.90;5.93;;;24.60;99.90;;;;;;5070550;28;20039;-71
2022/01/18 00:06:57;;;;;;;25.27;5.85;;;24.50;99.90;;;;;;5071976;28;20380;-71
2022/01/18 00:09:26;;;;;;;22.65;6.30;;;24.50;99.90;;;;;;5071575;28;20025;-71
2022/01/18 00:12:13;;;;;;;15.98;4.57;;;24.50;99.90;;;;;;5070739;28;20039;-71
2022/01/18 00:14:44;;;;;;;21.92;6.28;;;24.50;99.90;;;;;;5071985;28;20025;-71
2022/01/18 00:17:28;;;;;;;22.15;5.25;;;24.50;99.90;;;;;;5071950;28;20013;-73
2022/01/18 00:19:57;;;;;;;17.75;6.70;;;24.60;99.90;;;;;;5068686;28;20024;-72
2022/01/18 00:22:28;;;;;;;18.13;5.43;;;24.60;99.90;;;;;;5069375;28;20094;-70
2022/01/18 00:24:58;;;;;;;21.45;5.43;;;24.70;99.90;;;;;;5069612;28;20055;-72
2022/01/18 00:27:25;;;;;;;16.58;5.68;;;24.70;99.90;;;;;;5070451;28;20032;-71
2022/01/18 00:30:16;;;;;;;17.40;6.13;;;24.80;99.90;;;;;;5062599;28;20032;-70
2022/01/18 00:35:16;;;;;;;25.38;6.95;;;24.90;99.90;;;;;;5051204;28;20057;-72
2022/01/18 00:37:52;;;;;;;20.67;5.55;;;24.90;99.90;;;;;;5070644;28;20028;-71
2022/01/18 00:40:19;;;;;;;17.80;6.55;;;24.90;99.90;;;;;;5059107;28;20551;-71
2022/01/18 00:42:47;;;;;;;20.63;6.18;;;25.00;99.90;;;;;;5051149;28;20033;-72
2022/01/18 00:45:14;;;;;;;25.05;6.20;;;25.10;99.90;;;;;;5050772;28;20381;-72
2022/01/18 00:47:42;;;;;;;17.75;5.38;;;25.20;99.90;;;;;;5050898;28;20465;-72
2022/01/18 00:50:10;;;;;;;21.17;5.15;;;25.30;99.90;;;;;;5050942;28;20063;-70
2022/01/18 00:52:42;;;;;;;17.75;5.13;;;25.60;99.90;;;;;;5050554;28;20032;-71
2022/01/18 00:55:10;;;;;;;;;;;25.60;99.90;;;;;;5050664;28;20412;-70
2022/01/18 00:57:37;;;;;;;21.27;5.68;;;25.60;99.90;;;;;;5049947;28;19952;-73
2022/01/18 01:00:06;;;;;;;20.50;5.18;;;25.70;99.90;;;;;;5050082;28;20031;-70
2022/01/18 01:02:33;;;;;;;20.98;5.25;;;25.70;99.90;;;;;;5048684;28;20503;-71
2022/01/18 01:05:00;;;;;;;17.45;5.68;;;25.70;99.90;;;;;;5050062;28;20033;-70
2022/01/18 01:07:28;;;;;;;20.20;5.30;;;25.80;99.90;;;;;;5051819;28;20039;-72
2022/01/18 01:09:55;;;;;;;16.80;4.82;;;25.80;99.90;;;;;;5054442;28;20063;-70
2022/01/18 01:12:27;;;;;;;19.27;5.32;;;25.90;99.90;;;;;;5054674;28;20366;-69
2022/01/18 01:15:02;;;;;;;17.33;5.03;;;25.90;99.90;;;;;;5054279;28;20032;-71
2022/01/18 01:44:05;;;;;;;16.48;4.55;;;26.30;99.90;;;;;;5053431;28;20078;-72
2022/01/18 01:46:35;;;;;;;21.05;5.50;;;26.20;99.90;;;;;;5053922;28;20025;-71
2022/01/18 01:49:06;;;;;;;15.90;4.15;;;26.20;99.90;;;;;;5053610;28;20027;-73
2022/01/18 01:51:34;;;;;;;17.20;4.30;;;26.20;99.90;;;;;;5053792;28;20056;-70
2022/01/18 01:54:08;;;;;;;16.73;4.10;;;26.20;99.90;;;;;;5054123;28;20604;-70
2022/01/18 01:56:35;;;;;;;20.55;5.57;;;26.20;99.90;;;;;;5052620;28;20033;-70
2022/01/18 01:59:04;;;;;;;13.13;5.38;;;26.10;99.90;;;;;;5053317;28;20052;-70
2022/01/18 02:01:41;;;;;;;13.40;4.90;;;26.00;99.90;;;;;;5053464;28;20021;-73
2022/01/18 02:04:09;;;;;;;12.02;4.10;;;26.00;99.90;;;;;;5053005;28;20037;-72
2022/01/18 02:06:36;;;;;;;17.45;5.32;;;26.00;99.90;;;;;;5053761;28;20381;-71
2022/01/18 02:09:04;;;;;;;12.60;4.20;;;26.00;99.90;;;;;;5053953;28;20101;-72
2022/01/18 02:11:32;;;;;;;19.50;5.15;;;25.90;99.90;;;;;;5052138;28;20418;-72
2022/01/18 02:14:00;;;;;;;14.57;5.22;;;25.80;99.90;;;;;;5053554;28;20024;-72
2022/01/18 02:22:04;;;;;;;14.68;5.20;;;25.70;99.90;;;;;;5053528;28;20068;-71
2022/01/18 02:24:31;;;;;;;21.27;5.75;;;25.60;99.90;;;;;;5052591;28;20497;-71
2022/01/18 02:26:59;;;;;;;15.82;5.35;;;25.60;99.90;;;;;;5052923;28;20025;-71
2022/01/18 02:29:26;;;;;;;17.27;5.30;;;25.60;99.90;;;;;;5052416;28;20104;-72
2022/01/18 02:31:55;;;;;;;15.43;5.90;;;25.60;99.90;;;;;;5053037;28;20033;-73
2022/01/18 02:34:23;;;;;;;17.83;6.40;;;25.50;99.90;;;;;;5052899;28;20032;-71
2022/01/18 02:36:57;;;;;;;16.35;7.47;;;25.40;99.90;;;;;;5052895;28;20029;-72
2022/01/18 02:39:27;;;;;;;19.30;5.47;;;25.40;99.90;;;;;;5052783;28;20021;-72
2022/01/18 02:42:08;;;;;;;19.52;5.65;;;25.40;99.90;;;;;;5052887;28;20108;-69
2022/01/18 02:44:36;;;;;;;19.60;6.57;;;25.40;99.90;;;;;;5052635;28;20037;-69
2022/01/18 02:47:05;;;;;;;18.92;6.30;;;25.40;99.90;;;;;;5053081;28;20021;-72
2022/01/18 02:49:33;;;;;;;20.70;6.18;;;25.40;99.90;;;;;;5052879;28;20025;-73
2022/01/18 02:52:01;;;;;;;15.20;5.75;;;25.40;99.90;;;;;;5052609;28;20326;-73
2022/01/18 02:54:29;;;;;;;18.55;6.03;;;25.40;99.90;;;;;;5050899;28;20029;-74
2022/01/18 02:57:03;;;;;;;15.43;6.15;;;25.50;99.90;;;;;;5052403;28;20482;-70
2022/01/18 02:59:46;;;;;;;12.45;5.00;;;25.50;99.90;;;;;;5052181;28;20021;-70
2022/01/18 03:05:14;;;;;;;11.20;5.32;;;25.40;99.90;;;;;;5053104;28;20036;-71
2022/01/18 03:07:42;;;;;;;13.93;5.82;;;25.40;99.90;;;;;;5053960;28;20014;-71
2022/01/18 03:10:13;;;;;;;20.92;6.50;;;25.30;99.90;;;;;;5054681;28;20028;-71
2022/01/18 03:12:40;;;;;;;15.88;5.18;;;25.20;99.90;;;;;;5073927;28;20362;-69
2022/01/18 03:15:08;;;;;;;9.85;4.80;;;25.10;99.90;;;;;;5073648;28;20028;-69
2022/01/18 03:17:36;;;;;;;10.95;4.18;;;25.10;99.90;;;;;;5074151;28;20422;-71
2022/01/18 03:20:06;;;;;;;17.08;5.28;;;25.00;99.90;;;;;;5072766;28;20056;-72
2022/01/18 03:22:34;;;;;;;14.55;5.22;;;24.90;99.90;;;;;;5051730;28;20102;-72
2022/01/18 03:28:05;;;;;;;10.57;4.20;;;25.20;99.90;;;;;;5070868;28;20070;-70
2022/01/18 03:30:40;;;;;;;14.77;4.10;;;25.30;99.90;;;;;;5070603;28;20569;-72
2022/01/18 03:33:12;;;;;;;15.32;4.78;;;25.50;99.90;;;;;;5070741;28;20028;-72
2022/01/18 03:35:41;;;;;;;10.18;3.40;;;25.40;99.90;;;;;;5072202;28;20058;-69
2022/01/18 03:38:10;;;;;;;15.13;4.13;;;25.40;99.90;;;;;;5070622;28;20031;-70
2022/01/18 03:40:37;;;;;;;6.88;3.05;;;25.30;99.90;;;;;;5069388;28;20594;-69
2022/01/18 03:43:07;;;;;;;10.48;3.40;;;25.20;99.90;;;;;;5070159;28;20030;-73
2022/01/18 03:45:43;;;;;;;10.50;2.85;;;25.20;99.90;;;;;;5070712;28;20743;-72
2022/01/18 03:48:24;;;;;;;11.70;3.33;;;25.30;99.90;;;;;;5070586;28;20021;-71
2022/01/18 03:50:52;;;;;;;9.35;2.95;;;25.20;99.90;;;;;;5070435;28;20051;-73
2022/01/18 03:53:20;;;;;;;6.93;2.08;;;25.20;99.90;;;;;;5071851;28;20020;-74
2022/01/18 03:55:48;;;;;;;7.75;2.08;;;25.20;99.90;;;;;;5072339;28;20523;-70
2022/01/18 03:58:16;;;;;;;5.78;2.15;;;25.10;99.90;;;;;;5072193;28;20031;-74
2022/01/18 04:00:43;;;;;;;7.10;2.95;;;25.00;99.90;;;;;;5072064;28;20028;-72
2022/01/18 04:03:10;;;;;;;4.32;1.60;;;24.90;99.90;;;;;;5071805;28;20033;-74
2022/01/18 04:05:38;;;;;;;6.50;1.98;;;24.80;99.90;;;;;;5071874;28;20061;-69
2022/01/18 04:08:06;;;;;;;8.95;2.60;;;24.70;99.90;;;;;;5071982;28;20027;-71
2022/01/18 04:10:34;;;;;;;9.18;2.50;;;24.60;99.90;;;;;;5071672;28;20024;-73
2022/01/18 04:13:01;;;;;;;4.55;1.90;;;24.60;99.90;;;;;;5071897;28;20047;-71
2022/01/18 04:15:30;;;;;;;8.88;2.80;;;24.50;99.90;;;;;;5072613;28;20025;-72
2022/01/18 04:26:05;;;;;;;6.90;1.90;;;24.30;99.90;;;;;;5071074;28;20488;-70
2022/01/18 04:28:38;;;;;;;6.93;1.73;;;24.20;99.90;;;;;;5071796;28;20028;-73
2022/01/18 04:31:07;;;;;;;9.68;2.70;;;24.20;99.90;;;;;;5071029;28;20052;-70
2022/01/18 04:33:36;;;;;;;4.28;1.95;;;24.10;99.90;;;;;;5071778;28;20046;-70
2022/01/18 04:36:06;;;;;;;8.63;1.80;;;24.00;99.90;;;;;;5071255;28;20074;-70
2022/01/18 04:38:34;;;;;;;4.38;1.92;;;24.00;99.90;;;;;;5071462;28;20048;-71
2022/01/18 04:41:11;;;;;;;6.22;2.20;;;23.90;99.90;;;;;;5072089;28;20024;-70
2022/01/18 04:43:52;;;;;;;7.43;2.38;;;23.80;99.90;;;;;;5071271;28;20035;-72
2022/01/18 04:49:07;;;;;;;5.60;1.58;;;23.70;99.90;;;;;;5071978;28;20032;-71
2022/01/18 04:51:35;;;;;;;9.23;3.05;;;23.60;99.90;;;;;;5071682;28;20024;-72
2022/01/18 04:54:05;;;;;;;7.88;1.50;;;23.50;99.90;;;;;;5071802;28;20104;-71
2022/01/18 04:59:08;;;;;;;5.25;1.52;;;23.60;99.90;;;;;;5072040;28;20090;-71
2022/01/18 05:01:38;;;;;;;6.13;1.35;;;23.50;99.90;;;;;;5071519;28;20023;-71
2022/01/18 05:04:05;;;;;;;4.72;1.60;;;23.50;99.90;;;;;;5071548;28;20041;-71
2022/01/18 05:06:34;;;;;;;7.72;2.40;;;23.50;99.90;;;;;;5071879;28;20102;-72
2022/01/18 05:09:07;;;;;;;4.93;1.25;;;23.40;99.90;;;;;;5070349;28;20024;-68
2022/01/18 05:11:47;;;;;;;10.27;1.50;;;23.40;99.90;;;;;;5070523;28;20404;-70
2022/01/18 05:14:28;;;;;;;4.78;1.38;;;23.40;99.90;;;;;;5072133;28;20025;-71
2022/01/18 05:17:21;;;;;;;5.28;1.70;;;23.40;99.90;;;;;;5072214;28;20098;-70
2022/01/18 05:20:22;;;;;;;6.53;1.60;;;23.40;99.90;;;;;;5071190;28;20032;-70
2022/01/18 05:22:59;;;;;;;6.22;1.30;;;23.50;99.90;;;;;;5071165;28;20032;-68
2022/01/18 05:25:28;;;;;;;8.05;2.40;;;23.50;99.90;;;;;;5070218;28;20392;-69
2022/01/18 05:27:57;;;;;;;10.43;2.08;;;23.50;99.90;;;;;;5071068;28;20017;-68
2022/01/18 05:30:25;;;;;;;5.72;1.92;;;23.50;99.90;;;;;;5070979;28;20017;-70
2022/01/18 05:32:53;;;;;;;7.75;2.15;;;23.60;99.90;;;;;;5070783;28;20137;-68
2022/01/18 05:35:20;;;;;;;4.70;1.63;;;23.50;99.90;;;;;;5071084;28;20027;-66
2022/01/18 05:37:49;;;;;;;6.60;1.98;;;23.40;99.90;;;;;;5071577;28;20017;-68
2022/01/18 05:40:19;;;;;;;4.85;2.53;;;23.50;99.90;;;;;;5071182;28;20031;-67
2022/01/18 05:42:47;;;;;;;6.70;1.80;;;23.50;99.90;;;;;;5070843;28;20033;-70
2022/01/18 05:45:14;;;;;;;6.55;1.88;;;23.50;99.90;;;;;;5070830;28;20024;-68
2022/01/18 05:47:42;;;;;;;6.97;2.33;;;23.50;99.90;;;;;;5071031;28;20146;-67
2022/01/18 05:50:12;;;;;;;9.50;2.67;;;23.40;99.90;;;;;;5070736;28;20436;-67
2022/01/18 05:52:42;;;;;;;10.02;2.63;;;23.40;99.90;;;;;;5071133;28;20024;-68
2022/01/18 05:55:10;;;;;;;6.50;2.58;;;23.40;99.90;;;;;;5073140;28;20024;-68
2022/01/18 05:57:38;;;;;;;4.35;1.95;;;23.40;99.90;;;;;;5074554;28;20025;-70
2022/01/18 06:00:12;;;;;;;6.60;2.22;;;23.50;99.90;;;;;;5074299;28;20408;-72
2022/01/18 06:02:49;;;;;;;3.83;1.75;;;23.40;99.90;;;;;;5074373;28;20021;-70
2022/01/18 06:08:02;;;;;;;8.90;1.92;;;23.30;99.90;;;;;;5073638;28;20070;-71
2022/01/18 06:10:29;;;;;;;8.82;2.05;;;23.30;99.90;;;;;;5074390;28;20017;-67
2022/01/18 06:12:56;;;;;;;6.93;2.55;;;23.30;99.90;;;;;;5074390;28;20369;-69
2022/01/18 06:15:24;;;;;;;8.43;2.47;;;23.20;99.90;;;;;;5074210;28;20094;-68
2022/01/18 06:17:51;;;;;;;5.93;2.13;;;23.20;99.90;;;;;;5074294;28;20021;-68
2022/01/18 06:20:18;;;;;;;7.18;1.80;;;23.20;99.90;;;;;;5074122;28;20012;-72
2022/01/18 06:22:46;;;;;;;8.50;2.55;;;23.20;99.90;;;;;;5074047;28;20059;-69
2022/01/18 06:25:13;;;;;;;6.40;2.15;;;23.20;99.90;;;;;;5073996;28;20108;-72
2022/01/18 06:27:44;;;;;;;9.52;3.10;;;23.20;99.90;;;;;;5072250;28;20021;-71
2022/01/18 06:30:11;;;;;;;6.43;1.60;;;23.20;99.90;;;;;;5073785;28;20035;-69
2022/01/18 06:32:40;;;;;;;6.18;1.98;;;23.20;99.90;;;;;;5073296;28;20045;-72
2022/01/18 06:35:10;;;;;;;6.97;2.10;;;23.10;99.90;;;;;;5062745;28;20043;-68
2022/01/18 06:37:38;;;;;;;6.10;1.70;;;23.10;99.90;;;;;;5070786;28;20024;-71
2022/01/18 06:40:07;;;;;;;6.25;1.92;;;23.10;99.90;;;;;;5071443;28;20488;-69
2022/01/18 06:42:35;;;;;;;7.18;2.22;;;23.00;99.90;;;;;;5067760;28;20028;-69
2022/01/18 06:45:06;;;;;;;7.30;2.90;;;23.00;99.90;;;;;;5068633;28;20070;-68
2022/01/18 06:47:38;;;;;;;6.22;2.03;;;22.90;99.90;;;;;;5067119;28;20044;-71
2022/01/18 06:50:11;;;;;;;5.88;1.92;;;22.90;99.90;;;;;;5070776;28;20503;-72
2022/01/18 06:52:40;;;;;;;5.90;2.42;;;22.80;99.90;;;;;;5070309;28;20465;-72
2022/01/18 06:55:12;;;;;;;7.35;2.10;;;22.80;99.90;;;;;;5069849;28;20362;-72
2022/01/18 06:57:43;;;;;;;9.55;2.75;;;22.80;99.90;;;;;;5071844;28;20024;-72
2022/01/18 07:00:11;;;;;;;6.28;3.17;;;22.80;99.90;;;;;;5071961;28;20021;-70
2022/01/18 07:02:38;;;;;;;10.25;2.70;;;22.80;99.90;;;;;;5069549;28;20031;-69
2022/01/18 07:05:06;;;;;;;7.50;2.25;;;22.70;99.90;;;;;;5068539;28;20029;-71
2022/01/18 07:07:33;;;;;;;5.97;2.35;;;22.70;99.90;;;;;;5071268;28;20044;-71
2022/01/18 07:10:01;;;;;;;6.75;2.08;;;22.60;99.90;;;;;;5072001;28;20132;-70
2022/01/18 07:12:33;;;;;;;7.70;2.20;;;22.60;99.90;;;;;;5071810;28;20044;-70
2022/01/18 07:15:06;;;;;;;8.05;2.90;;;22.60;99.90;;;;;;5066518;28;20033;-66
2022/01/18 07:17:34;;;;;;;8.80;2.55;;;22.50;99.90;;;;;;5070608;28;20317;-72
2022/01/18 07:20:02;;;;;;;5.93;3.03;;;22.50;99.90;;;;;;5070810;28;20021;-70
2022/01/18 07:22:29;;;;;;;10.95;3.83;;;22.50;99.90;;;;;;5070836;28;20013;-70
2022/01/18 07:24:58;;;;;;;8.02;3.92;;;22.50;99.90;;;;;;5066006;28;20103;-72
2022/01/18 07:27:25;;;;;;;8.50;4.03;;;22.40;99.90;;;;;;5071413;28;20021;-73
2022/01/18 07:29:53;;;;;;;10.25;4.40;;;22.40;99.90;;;;;;5070746;28;20016;-72
2022/01/18 07:32:21;;;;;;;8.65;3.92;;;22.40;99.90;;;;;;5070687;28;20048;-70
2022/01/18 07:34:52;;;;;;;14.75;4.88;;;22.40;99.90;;;;;;5065695;28;20029;-70
2022/01/18 07:37:23;;;;;;;11.60;5.88;;;22.40;99.90;;;;;;5070362;28;20024;-71
2022/01/18 07:39:52;;;;;;;16.00;6.65;;;22.40;99.90;;;;;;5070374;28;20029;-70
2022/01/18 07:42:21;;;;;;;15.18;7.85;;;22.40;99.90;;;;;;5068521;28;20472;-70
2022/01/18 07:44:49;;;;;;;16.95;8.20;;;22.40;99.90;;;;;;5059901;28;20491;-68
2022/01/18 07:47:16;;;;;;;19.48;9.32;;;22.40;99.90;;;;;;5052178;28;20022;-70
2022/01/18 07:49:43;;;;;;;21.38;10.10;;;22.40;99.90;;;;;;5052344;28;20037;-70
2022/01/18 07:52:11;;;;;;;18.98;11.40;;;22.30;99.90;;;;;;5051464;28;20025;-70
2022/01/18 07:54:38;;;;;;;24.33;11.45;;;22.30;99.90;;;;;;5066099;28;20040;-70
2022/01/18 07:57:05;;;;;;;27.10;13.27;;;22.30;99.90;;;;;;5069941;28;20033;-69
2022/01/18 07:59:33;;;;;;;23.88;12.95;;;22.40;99.90;;;;;;5069403;28;20154;-72
2022/01/18 08:02:00;;;;;;;35.75;14.65;;;22.30;99.90;;;;;;5068572;28;20107;-71
2022/01/18 08:04:28;;;;;;;31.60;14.90;;;22.30;99.90;;;;;;5069026;28;20473;-70
2022/01/18 08:06:56;;;;;;;30.35;13.50;;;22.30;99.90;;;;;;5067838;28;20070;-71
2022/01/18 08:09:23;;;;;;;35.03;14.98;;;22.30;99.90;;;;;;5069305;28;20072;-70
2022/01/18 08:11:52;;;;;;;32.08;16.25;;;22.30;99.90;;;;;;5066943;28;20028;-71
2022/01/18 08:14:26;;;;;;;31.42;17.83;;;22.30;99.90;;;;;;5069406;28;20031;-71
2022/01/18 08:17:05;;;;;;;35.90;16.48;;;22.30;99.90;;;;;;5063442;28;20462;-73
2022/01/18 08:19:37;;;;;;;37.13;17.48;;;22.30;99.90;;;;;;5065693;28;20043;-69
2022/01/18 08:22:04;;;;;;;36.42;18.92;;;22.30;99.90;;;;;;5065663;28;20024;-72
2022/01/18 08:24:32;;;;;;;35.38;17.05;;;22.30;99.90;;;;;;5053209;28;20033;-71
2022/01/18 08:26:59;;;;;;;36.78;17.92;;;22.30;99.90;;;;;;5049057;28;20025;-73
2022/01/18 08:29:27;;;;;;;39.30;17.10;;;22.30;99.90;;;;;;5050589;28;20032;-73
2022/01/18 08:31:54;;;;;;;32.95;17.20;;;22.20;99.90;;;;;;5049867;28;20119;-72
2022/01/18 08:34:22;;;;;;;41.70;19.65;;;22.20;99.90;;;;;;5062575;28;20082;-72
2022/01/18 08:36:51;;;;;;;38.00;18.08;;;22.20;99.90;;;;;;5071139;28;20031;-71
2022/01/18 08:39:19;;;;;;;46.75;19.90;;;22.20;99.90;;;;;;5071565;28;20035;-70
2022/01/18 08:41:55;;;;;;;41.97;19.63;;;22.20;99.90;;;;;;5061554;28;20013;-70
2022/01/18 08:44:22;;;;;;;37.15;19.23;;;22.20;99.90;;;;;;5060689;28;20044;-67
2022/01/18 08:46:50;;;;;;;39.83;18.55;;;22.20;99.90;;;;;;5071091;28;20021;-71
2022/01/18 08:49:17;;;;;;;38.03;18.75;;;22.20;99.90;;;;;;5071147;28;20032;-71
2022/01/18 08:51:45;;;;;;;39.63;18.80;;;22.20;99.90;;;;;;5061899;28;20013;-71
2022/01/18 08:54:13;;;;;;;39.38;20.17;;;22.10;99.90;;;;;;5051105;28;20025;-71
2022/01/18 08:56:40;;;;;;;37.95;19.95;;;22.10;99.90;;;;;;5051204;28;20055;-71
2022/01/18 08:59:10;;;;;;;40.05;19.98;;;22.10;99.90;;;;;;5050780;28;20021;-70
2022/01/18 09:01:41;;;;;;;43.72;18.83;;;22.10;99.90;;;;;;5050850;28;20108;-70
2022/01/18 09:04:08;;;;;;;33.88;18.63;;;22.10;99.90;;;;;;5050685;28;20036;-71
2022/01/18 09:06:37;;;;;;;38.67;18.40;;;22.10;99.90;;;;;;5056512;28;20047;-72
2022/01/18 09:09:06;;;;;;;40.15;19.95;;;22.10;99.90;;;;;;5067004;28;20481;-71
2022/01/18 09:11:33;;;;;;;35.70;18.08;;;22.10;99.90;;;;;;5067870;28;20051;-69
2022/01/18 09:14:00;;;;;;;32.78;18.77;;;22.00;99.90;;;;;;5070572;28;20481;-68
2022/01/18 09:16:28;;;;;;;39.58;20.02;;;22.00;99.90;;;;;;5051193;28;20047;-69
2022/01/18 09:18:55;;;;;;;37.05;19.05;;;21.90;99.90;;;;;;5070623;28;20103;-70
2022/01/18 09:21:25;;;;;;;37.30;17.77;;;21.90;99.90;;;;;;5066525;28;20035;-72
2022/01/18 09:23:53;;;;;;;36.33;18.13;;;21.90;99.90;;;;;;5069970;28;20051;-72
2022/01/18 09:26:21;;;;;;;37.45;19.55;;;21.90;99.90;;;;;;5070262;28;20021;-70
2022/01/18 09:28:48;;;;;;;32.67;17.27;;;21.90;99.90;;;;;;5070404;28;20047;-71
2022/01/18 09:31:16;;;;;;;36.03;17.60;;;21.90;99.90;;;;;;5071166;28;20075;-73
2022/01/18 09:33:43;;;;;;;37.50;19.05;;;21.80;99.90;;;;;;5070251;28;20489;-74
2022/01/18 09:36:11;;;;;;;35.58;17.50;;;21.80;99.90;;;;;;5072901;28;20103;-71
2022/01/18 09:38:38;;;;;;;42.38;19.00;;;21.80;99.90;;;;;;5069866;28;20047;-74
2022/01/18 09:41:11;;;;;;;38.03;17.90;;;21.80;99.90;;;;;;5071248;28;20053;-73
2022/01/18 09:43:41;;;;;;;39.28;18.88;;;21.70;99.90;;;;;;5073929;28;20507;-74
2022/01/18 09:46:09;;;;;;;36.75;16.92;;;21.70;99.90;;;;;;5073713;28;20024;-68
2022/01/18 09:48:37;;;;;;;39.63;18.50;;;21.70;99.90;;;;;;5070556;28;20033;-73
2022/01/18 09:51:05;;;;;;;39.85;17.35;;;21.70;99.90;;;;;;5069511;28;20032;-66
2022/01/18 09:53:32;;;;;;;42.92;17.38;;;21.80;99.90;;;;;;5054175;28;20059;-71
2022/01/18 09:56:00;;;;;;;41.97;18.30;;;21.70;99.90;;;;;;5054072;28;20022;-69
2022/01/18 09:58:29;;;;;;;41.75;16.58;;;21.70;99.90;;;;;;5054245;28;20021;-75
2022/01/18 10:00:58;;;;;;;33.35;17.98;;;21.80;99.90;;;;;;5069927;28;20021;-73
2022/01/18 10:03:37;;;;;;;33.13;16.75;;;21.70;99.90;;;;;;5057393;28;20127;-66
2022/01/18 10:06:07;;;;;;;34.40;15.85;;;21.60;99.90;;;;;;5073887;28;20035;-64
2022/01/18 10:08:39;;;;;;;35.03;15.63;;;21.70;99.90;;;;;;5060104;28;20079;-67
2022/01/18 10:11:14;;;;;;;40.42;16.60;;;21.70;99.90;;;;;;5051949;28;20067;-69
2022/01/18 10:13:42;;;;;;;38.53;15.77;;;21.70;99.90;;;;;;5053754;28;20116;-68
2022/01/18 10:16:10;;;;;;;33.67;16.67;;;21.70;99.90;;;;;;5060740;28;20025;-69
2022/01/18 10:18:45;;;;;;;37.67;18.35;;;21.70;99.90;;;;;;5072776;28;20043;-70
2022/01/18 10:21:15;;;;;;;35.63;16.38;;;21.70;99.90;;;;;;5067850;28;20040;-69
2022/01/18 10:23:49;;;;;;;32.85;16.67;;;21.70;99.90;;;;;;5053336;28;20032;-71
2022/01/18 10:26:25;;;;;;;38.58;16.30;;;21.70;99.90;;;;;;5053200;28;20028;-71
2022/01/18 10:29:05;;;;;;;32.00;14.38;;;21.70;99.90;;;;;;5053472;28;20416;-68
2022/01/18 10:37:17;;;;;;;32.47;14.15;;;21.70;99.90;;;;;;5070918;28;20053;-74
2022/01/18 10:39:59;;;;;;;38.53;12.70;;;21.60;99.90;;;;;;5067057;28;20040;-75
2022/01/18 10:42:48;;;;;;;33.25;14.32;;;21.60;99.90;;;;;;5069974;28;20020;-75
2022/01/18 10:45:31;;;;;;;30.00;13.00;;;21.60;99.90;;;;;;5072010;28;20516;-74
2022/01/18 10:48:14;;;;;;;25.98;12.52;;;21.60;99.90;;;;;;5073011;28;20346;-74
2022/01/18 10:50:45;;;;;;;27.73;11.77;;;21.60;99.90;;;;;;5073224;28;20108;-75
2022/01/18 10:53:14;;;;;;;33.42;13.27;;;21.50;99.90;;;;;;5071693;28;20028;-74
2022/01/18 10:55:42;;;;;;;26.15;12.45;;;21.50;99.90;;;;;;5073127;28;20016;-72
2022/01/18 10:58:15;;;;;;;29.50;11.82;;;21.50;99.90;;;;;;5072949;28;20039;-74
2022/01/18 11:00:43;;;;;;;34.65;12.10;;;21.40;99.90;;;;;;5073248;28;20031;-75
2022/01/18 11:03:11;;;;;;;32.47;13.23;;;21.40;99.90;;;;;;5072493;28;20028;-74
2022/01/18 11:05:40;;;;;;;32.70;13.85;;;21.40;99.90;;;;;;5073285;28;20704;-74
2022/01/18 11:08:08;;;;;;;34.97;13.25;;;21.40;99.90;;;;;;5072469;28;20024;-74
2022/01/18 11:10:38;;;;;;;34.55;12.65;;;21.30;99.90;;;;;;5072721;28;20020;-73
2022/01/18 11:13:10;;;;;;;35.65;11.52;;;21.30;99.90;;;;;;5073021;28;20029;-73
2022/01/18 11:15:42;;;;;;;34.95;11.63;;;21.30;99.90;;;;;;5073162;28;20017;-69
2022/01/18 11:18:17;;;;;;;33.40;12.38;;;21.30;99.90;;;;;;5073047;28;20072;-73
2022/01/18 11:20:47;;;;;;;23.15;10.18;;;21.30;99.90;;;;;;5072635;28;20013;-73
2022/01/18 11:23:15;;;;;;;44.63;13.35;;;21.30;99.90;;;;;;5072684;28;20032;-73
2022/01/18 11:25:43;;;;;;;36.85;10.65;;;21.30;99.90;;;;;;5072225;28;20035;-72
2022/01/18 11:28:12;;;;;;;29.58;11.27;;;21.20;99.90;;;;;;5071570;28;20025;-74
2022/01/18 11:30:43;;;;;;;36.08;11.35;;;21.20;99.90;;;;;;5071295;28;20027;-70
2022/01/18 11:33:16;;;;;;;37.10;11.57;;;21.30;99.90;;;;;;5071480;28;20492;-72
2022/01/18 11:36:01;;;;;;;39.47;10.30;;;21.20;99.90;;;;;;5070972;28;20021;-72
2022/01/18 11:38:36;;;;;;;35.92;11.75;;;21.20;99.90;;;;;;5078265;28;20019;-72
2022/01/18 11:41:04;;;;;;;31.55;9.27;;;21.20;99.90;;;;;;5065767;28;20054;-74
2022/01/18 11:43:36;;;;;;;31.83;10.13;;;21.20;99.90;;;;;;5052174;28;20047;-70
2022/01/18 11:46:23;;;;;;;36.00;9.77;;;21.20;99.90;;;;;;5052563;28;20108;-72
2022/01/18 11:49:04;;;;;;;38.00;9.50;;;21.20;99.90;;;;;;5058059;28;20032;-73
2022/01/18 11:51:49;;;;;;;27.98;9.32;;;21.20;99.90;;;;;;5070512;28;20021;-70
2022/01/18 11:54:36;;;;;;;31.27;8.77;;;21.20;99.90;;;;;;5071280;28;20032;-71
2022/01/18 11:57:27;;;;;;;32.40;8.48;;;21.30;99.90;;;;;;5071265;28;20036;-69
2022/01/18 12:00:00;;;;;;;24.55;8.40;;;21.30;99.90;;;;;;5070775;28;20047;-70
2022/01/18 12:02:43;;;;;;;27.52;9.45;;;21.30;99.90;;;;;;5071247;28;20502;-70
2022/01/18 12:05:19;;;;;;;36.22;10.20;;;21.30;99.90;;;;;;5065927;28;20082;-71
2022/01/18 12:07:47;;;;;;;32.97;8.98;;;21.30;99.90;;;;;;5068185;28;20027;-73
2022/01/18 12:10:34;;;;;;;25.27;9.48;;;21.30;99.90;;;;;;5070410;28;20078;-70
2022/01/18 12:13:02;;;;;;;23.10;8.32;;;21.30;99.90;;;;;;5068914;28;20036;-72
2022/01/18 12:15:39;;;;;;;35.78;9.40;;;21.30;99.90;;;;;;5071025;28;20012;-72
2022/01/18 12:18:34;;;;;;;22.45;8.40;;;21.30;99.90;;;;;;5069336;28;20099;-71
2022/01/18 12:21:20;;;;;;;27.92;9.73;;;21.40;99.90;;;;;;5068644;28;20069;-71
2022/01/18 12:23:47;;;;;;;31.42;10.93;;;21.40;99.90;;;;;;5069440;28;20039;-73
2022/01/18 12:29:24;;;;;;;31.70;9.23;;;21.30;99.90;;;;;;5068230;28;20024;-74
2022/01/18 12:34:47;;;;;;;34.72;8.30;;;21.30;99.90;;;;;;5069326;28;20016;-74
2022/01/18 12:37:17;;;;;;;28.23;9.88;;;21.30;99.90;;;;;;5069815;28;20484;-71
2022/01/18 12:39:53;;;;;;;31.95;9.07;;;21.30;99.90;;;;;;5070272;28;20074;-74
2022/01/18 12:44:20;;;;;;;36.35;10.18;;;21.40;99.90;;;;;;5068484;28;20078;-73
2022/01/18 12:45:25;;;;;;;27.67;8.63;;;21.40;99.90;;;;;;5067864;28;20040;-72
2022/01/18 12:47:59;;;;;;;35.08;9.30;;;21.30;99.90;;;;;;5070916;28;20033;-72
2022/01/18 12:50:34;;;;;;;33.85;8.73;;;21.30;99.90;;;;;;5070792;28;20048;-69
2022/01/18 12:53:05;;;;;;;39.55;8.93;;;21.30;99.90;;;;;;5068593;28;20028;-72
2022/01/18 12:55:48;;;;;;;30.27;8.15;;;21.40;99.90;;;;;;5070616;28;20025;-73
2022/01/18 12:58:21;;;;;;;30.08;7.50;;;21.30;99.90;;;;;;5069656;28;20028;-71
2022/01/18 13:00:57;;;;;;;28.90;9.48;;;21.30;99.90;;;;;;5069967;28;20468;-74
2022/01/18 13:03:34;;;;;;;29.70;8.52;;;21.40;99.90;;;;;;5069394;28;20036;-70
2022/01/18 13:06:06;;;;;;;27.70;7.90;;;21.30;99.90;;;;;;5071958;28;20111;-72
2022/01/18 13:09:00;;;;;;;29.25;8.30;;;21.30;99.90;;;;;;5074253;28;20078;-69
2022/01/18 13:11:29;;;;;;;24.40;7.72;;;21.30;99.90;;;;;;5071002;28;20024;-69
2022/01/18 13:14:18;;;;;;;25.27;6.65;;;21.30;99.90;;;;;;5074550;28;20358;-71
2022/01/18 13:25:10;;;;;;;25.90;7.45;;;21.40;99.90;;;;;;5072205;28;20094;-72
2022/01/18 13:30:18;;;;;;;26.77;8.02;;;21.50;99.90;;;;;;5074056;28;20804;-71
2022/01/18 13:32:47;;;;;;;24.38;6.95;;;21.50;99.90;;;;;;5072164;28;20052;-70
2022/01/18 13:35:18;;;;;;;38.15;8.30;;;21.50;99.90;;;;;;5073880;28;20012;-71
2022/01/18 13:37:46;;;;;;;25.65;6.95;;;21.50;99.90;;;;;;5073452;28;20012;-71
2022/01/18 13:40:17;;;;;;;28.58;7.43;;;21.50;99.90;;;;;;5073077;28;20020;-68
2022/01/18 13:43:08;;;;;;;25.80;7.03;;;21.50;99.90;;;;;;5074031;28;20107;-70
2022/01/18 13:45:43;;;;;;;19.20;6.15;;;21.50;99.90;;;;;;5073309;28;20036;-72
2022/01/18 13:48:12;;;;;;;23.70;6.55;;;21.40;99.90;;;;;;5073932;28;20107;-72
2022/01/18 13:50:57;;;;;;;21.33;5.72;;;21.50;99.90;;;;;;5070905;28;20480;-71
2022/01/18 13:53:30;;;;;;;22.30;6.35;;;21.50;99.90;;;;;;5071791;28;20055;-70
2022/01/18 13:56:18;;;;;;;22.55;7.50;;;21.50;99.90;;;;;;5073378;28;20032;-72
2022/01/18 13:58:53;;;;;;;25.67;6.57;;;21.50;99.90;;;;;;5071348;28;20563;-70
2022/01/18 14:01:28;;;;;;;26.15;7.03;;;21.50;99.90;;;;;;5071035;28;20040;-72
2022/01/18 14:03:58;;;;;;;31.77;7.15;;;21.60;99.90;;;;;;5073213;28;20029;-72
2022/01/18 14:06:37;;;;;;;19.77;5.72;;;21.60;99.90;;;;;;5073485;28;20016;-66
2022/01/18 14:09:07;;;;;;;29.63;6.75;;;21.60;99.90;;;;;;5071724;28;20499;-68
2022/01/18 14:11:36;;;;;;;27.60;6.53;;;21.60;99.90;;;;;;5073410;28;20111;-69
2022/01/18 14:14:31;;;;;;;34.15;9.05;;;21.60;99.90;;;;;;5073194;28;20385;-68
2022/01/18 14:17:02;;;;;;;23.58;6.05;;;21.60;99.90;;;;;;5069144;28;20029;-69